W81 weather

Public forecast

Using degrees Fahrenheit for public forecast. Weather courtesy of forecast.io.

Current aviation weather report (METAR) for Crewe Municipal Airport

Retrieved 2020/08/14 16:35 UTC (0 seconds ago):

KW81 141635Z AUTO 00000KT 10SM SCT023 BKN060 OVC095 26/24 A2997 RMK AO1 T02550240

Closest aviation forecast (TAF) to Crewe Municipal Airport

Closest forecast is Richmond International Airport, 42.0 nm (77.7 km) ENE. Retrieved 2020/08/14 12:36 UTC (4 hours ago):

TAF KRIC 141134Z 1412/1512 01005KT P6SM VCSH SCT008 BKN025 TEMPO 1412/1414 5SM -RA BKN008 FM141600 02008KT P6SM VCSH BKN020 FM141800 02008KT 6SM -SHRA BKN030 FM150000 VRB03KT P6SM BKN040 FM150600 00000KT P6SM BKN030